Time;durP1;ratioP1;P1;durP2;ratioP2;P2;SDS_P1;SDS_P2;PMS_P1;PMS_P2;Temp;Humidity;BMP_temperature;BMP_pressure;BME280_temperature;BME280_humidity;BME280_pressure;Samples;Min_cycle;Max_cycle;Signal;HPM_P1;HPM_P2
2022/04/25 00:01:47;;;;;;;33.67;30.08;;;10.50;99.90;;;10.24;100.00;99582.34;4988422;28;20039;-76
2022/04/25 00:04:15;;;;;;;28.27;25.25;;;10.50;99.90;;;10.27;100.00;99587.50;4984089;28;20043;-76
2022/04/25 00:06:42;;;;;;;28.55;25.67;;;10.50;99.90;;;10.25;100.00;99577.03;4983981;28;20456;-77
2022/04/25 00:09:09;;;;;;;27.98;25.13;;;10.50;99.90;;;10.24;100.00;99585.00;4982601;28;20051;-76
2022/04/25 00:11:36;;;;;;;25.95;23.23;;;10.50;99.90;;;10.26;100.00;99584.00;4991763;28;20491;-76
2022/04/25 00:14:04;;;;;;;24.83;22.20;;;10.50;99.90;;;10.26;100.00;99580.53;4986229;28;20122;-77
2022/04/25 00:16:31;;;;;;;25.80;23.05;;;10.40;99.90;;;10.32;100.00;99575.91;4986881;28;20074;-77
2022/04/25 00:19:00;;;;;;;23.85;21.45;;;10.70;99.90;;;10.39;100.00;99580.94;4985202;28;20046;-77
2022/04/25 00:21:27;;;;;;;24.42;21.92;;;10.50;99.90;;;10.39;100.00;99576.56;4985966;28;20038;-77
2022/04/25 00:23:54;;;;;;;24.17;21.60;;;10.40;99.90;;;10.46;100.00;99588.59;4985965;28;20121;-76
2022/04/25 00:26:21;;;;;;;23.05;20.73;;;11.70;99.90;;;10.45;100.00;99586.00;4986994;28;20415;-77
2022/04/25 00:28:48;;;;;;;24.40;21.92;;;10.50;99.90;;;10.43;100.00;99585.19;4985746;28;20043;-77
2022/04/25 00:31:14;;;;;;;23.27;21.02;;;10.50;99.90;;;10.41;100.00;99587.91;4994454;28;20058;-76
2022/04/25 00:33:42;;;;;;;21.52;19.42;;;11.50;99.90;;;10.41;100.00;99584.41;4987383;28;20510;-77
2022/04/25 00:36:09;;;;;;;26.88;19.98;;;10.50;99.90;;;10.37;100.00;99586.25;4986607;28;20053;-77
2022/04/25 00:38:36;;;;;;;21.92;19.67;;;10.50;99.90;;;10.39;100.00;99584.44;5002420;28;20082;-76
2022/04/25 00:41:06;;;;;;;22.75;20.50;;;10.50;99.90;;;10.28;100.00;99584.78;5003979;28;20403;-76
2022/04/25 00:43:33;;;;;;;21.42;19.35;;;10.50;99.90;;;10.26;100.00;99583.16;4990140;28;20054;-76
2022/04/25 00:46:02;;;;;;;21.40;19.20;;;10.50;99.90;;;10.32;100.00;99581.16;5007662;28;20061;-76
2022/04/25 00:48:29;;;;;;;23.48;21.17;;;10.60;99.90;;;10.31;100.00;99587.34;4991091;28;20050;-76
2022/04/25 00:50:56;;;;;;;22.88;20.60;;;10.40;99.90;;;10.25;100.00;99581.44;4989825;28;20046;-76
2022/04/25 00:53:23;;;;;;;24.17;21.77;;;10.40;99.90;;;10.25;100.00;99579.66;5006556;28;20046;-76
2022/04/25 00:55:50;;;;;;;23.00;20.58;;;11.10;99.90;;;10.30;100.00;99590.88;4978259;28;20049;-77
2022/04/25 00:58:18;;;;;;;22.63;20.48;;;10.40;99.90;;;10.25;100.00;99586.69;4991282;28;20042;-76
2022/04/25 01:00:46;;;;;;;22.88;20.67;;;10.40;99.90;;;10.27;100.00;99592.75;4973359;28;20061;-76
2022/04/25 01:03:13;;;;;;;21.42;19.23;;;10.40;99.90;;;10.23;100.00;99593.78;4991230;28;20151;-77
2022/04/25 01:05:40;;;;;;;21.50;19.40;;;10.40;99.90;;;10.27;100.00;99592.75;5005951;28;20096;-76
2022/04/25 01:08:08;;;;;;;21.08;18.88;;;10.40;99.90;;;10.29;100.00;99590.94;5006256;28;20125;-76
2022/04/25 01:10:34;;;;;;;21.30;19.30;;;10.40;99.90;;;10.23;100.00;99594.63;4990452;28;20553;-76
2022/04/25 01:13:02;;;;;;;22.20;19.98;;;10.40;99.90;;;10.28;100.00;99594.47;4989849;28;20085;-76
2022/04/25 01:15:30;;;;;;;21.55;19.45;;;10.40;99.90;;;10.25;100.00;99584.06;5005749;28;20499;-76
2022/04/25 01:17:57;;;;;;;22.02;19.60;;;10.30;99.90;;;10.16;100.00;99582.63;5005883;28;20046;-76
2022/04/25 01:20:25;;;;;;;21.40;19.30;;;10.30;99.90;;;10.07;100.00;99586.44;5005260;28;20762;-76
2022/04/25 01:28:37;;;;;;;22.63;20.45;;;10.20;99.90;;;9.84;100.00;99584.59;5003548;28;20101;-76
2022/04/25 01:31:04;;;;;;;22.55;20.30;;;10.10;99.90;;;9.74;100.00;99587.50;4995153;28;20050;-76
2022/04/25 01:33:31;;;;;;;37.38;33.63;;;10.60;99.90;;;9.70;100.00;99585.91;4970487;28;20401;-76
2022/04/25 01:35:58;;;;;;;30.50;27.40;;;9.90;99.90;;;9.63;100.00;99581.75;4970790;28;20039;-77
2022/04/25 01:38:25;;;;;;;26.73;23.88;;;9.90;99.90;;;9.55;100.00;99592.50;4985854;28;20054;-76
2022/04/25 01:40:52;;;;;;;24.20;21.88;;;9.80;99.90;;;9.51;100.00;99588.25;4970735;28;20034;-76
2022/04/25 01:43:19;;;;;;;26.90;24.20;;;9.70;99.90;;;9.44;100.00;99591.97;4971342;28;20038;-76
2022/04/25 01:45:46;;;;;;;25.17;22.65;;;9.80;99.90;;;9.40;100.00;99590.34;4971235;28;20039;-76
2022/04/25 01:48:13;;;;;;;24.50;22.08;;;9.60;99.90;;;9.30;100.00;99592.41;4970773;28;20039;-76
2022/04/25 01:50:41;;;;;;;24.23;21.88;;;9.60;99.90;;;9.18;100.00;99589.25;4985236;28;20047;-76
2022/04/25 01:53:08;;;;;;;22.98;20.67;;;11.20;99.90;;;9.13;100.00;99596.44;4985242;28;20050;-76
2022/04/25 01:55:35;;;;;;;22.52;20.20;;;9.50;99.90;;;9.06;100.00;99582.63;4969485;28;20043;-76
2022/04/25 01:58:02;;;;;;;24.38;20.10;;;9.40;99.90;;;9.01;100.00;99583.66;4985498;28;20153;-76
2022/04/25 02:00:29;;;;;;;23.17;20.85;;;9.30;99.90;;;8.93;100.00;99589.16;4990030;28;20034;-76
2022/04/25 02:02:56;;;;;;;23.98;21.67;;;9.30;99.90;;;8.86;100.00;99585.84;4972857;28;20050;-76
2022/04/25 02:05:23;;;;;;;22.98;20.67;;;9.20;99.90;;;8.87;100.00;99587.56;4989329;28;20100;-76
2022/04/25 02:07:50;;;;;;;22.35;20.15;;;9.10;99.90;;;8.83;100.00;99585.09;4987769;28;20061;-76
2022/04/25 02:10:17;;;;;;;23.00;20.73;;;9.10;99.90;;;8.77;100.00;99589.59;4988491;28;20050;-77
2022/04/25 02:12:44;;;;;;;23.13;20.77;;;9.10;99.90;;;8.69;100.00;99582.84;4988805;28;20053;-76
2022/04/25 02:15:13;;;;;;;23.13;20.63;;;9.00;99.90;;;8.75;100.00;99585.31;4988725;28;20046;-77
2022/04/25 02:17:42;;;;;;;24.33;21.77;;;8.90;99.90;;;8.75;100.00;99594.03;4957693;28;20073;-76
2022/04/25 02:20:10;;;;;;;24.70;22.05;;;9.10;99.90;;;8.71;100.00;99602.91;4972370;28;20463;-76
2022/04/25 02:22:38;;;;;;;24.52;22.00;;;8.90;99.90;;;8.68;100.00;99599.50;4989551;28;20050;-76
2022/04/25 02:25:06;;;;;;;24.80;22.40;;;8.90;99.90;;;8.69;100.00;99604.72;5005383;28;20058;-76
2022/04/25 02:27:33;;;;;;;24.05;21.65;;;8.90;99.90;;;8.64;100.00;99614.44;4988678;28;20069;-76
2022/04/25 02:30:00;;;;;;;24.40;21.75;;;9.20;99.90;;;8.65;100.00;99609.19;5004525;28;20050;-75
2022/04/25 02:32:28;;;;;;;27.27;21.65;;;8.80;99.90;;;8.69;100.00;99622.19;5005232;28;20038;-76
2022/04/25 02:34:56;;;;;;;24.90;22.40;;;8.90;99.90;;;8.61;100.00;99625.03;5004718;28;20048;-76
2022/04/25 02:37:25;;;;;;;23.95;21.55;;;8.80;99.90;;;8.59;100.00;99624.22;4989376;28;20057;-76
2022/04/25 02:39:52;;;;;;;22.95;20.65;;;8.80;99.90;;;8.54;100.00;99626.13;5004611;28;20043;-76
2022/04/25 02:42:19;;;;;;;22.90;20.65;;;9.60;99.90;;;8.44;100.00;99618.47;4989467;28;20046;-76
2022/04/25 02:44:48;;;;;;;22.90;20.50;;;9.00;99.90;;;8.36;100.00;99615.19;5004661;28;20061;-75
2022/04/25 02:47:15;;;;;;;22.30;20.00;;;8.70;99.90;;;8.34;100.00;99622.22;4988748;28;20046;-76
2022/04/25 02:49:42;;;;;;;23.92;21.58;;;8.70;99.90;;;8.17;100.00;99626.16;5003566;28;20049;-75
2022/04/25 02:52:09;;;;;;;22.42;20.13;;;9.50;99.90;;;8.14;100.00;99623.63;4988606;28;20403;-76
2022/04/25 02:54:36;;;;;;;22.83;20.52;;;9.80;99.90;;;8.22;100.00;99619.06;5004443;28;20055;-78
2022/04/25 02:57:04;;;;;;;22.20;19.88;;;8.50;99.90;;;8.25;100.00;99619.88;5004933;28;20500;-77
2022/04/25 02:59:31;;;;;;;25.15;20.33;;;8.50;99.90;;;8.28;100.00;99628.50;4984141;28;20043;-78
2022/04/25 03:01:58;;;;;;;23.45;21.05;;;8.50;99.90;;;8.28;100.00;99619.78;5004612;28;20080;-77
2022/04/25 03:04:26;;;;;;;25.52;22.52;;;8.90;99.90;;;8.31;100.00;99632.78;4989383;28;20050;-77
2022/04/25 03:06:54;;;;;;;25.98;23.38;;;8.50;99.90;;;8.21;100.00;99629.56;4956976;28;20137;-77
2022/04/25 03:09:22;;;;;;;25.50;22.17;;;10.40;99.90;;;8.12;100.00;99616.69;4971855;28;20050;-77
2022/04/25 03:11:50;;;;;;;25.45;22.85;;;8.50;99.90;;;8.14;100.00;99613.13;4987501;28;20754;-77
2022/04/25 03:14:17;;;;;;;23.10;20.60;;;8.40;99.90;;;8.09;100.00;99621.09;4987490;28;20531;-77
2022/04/25 03:16:44;;;;;;;22.60;20.23;;;8.40;99.90;;;8.03;100.00;99617.78;4988593;28;20566;-77
2022/04/25 03:19:11;;;;;;;23.83;21.38;;;9.20;99.90;;;8.08;100.00;99626.41;4970843;28;20046;-78
2022/04/25 03:21:38;;;;;;;22.98;20.77;;;9.50;99.90;;;8.09;100.00;99628.13;4987432;28;20128;-77
2022/04/25 03:24:05;;;;;;;23.90;21.40;;;8.70;99.90;;;7.98;100.00;99631.03;4987404;28;20519;-77
2022/04/25 03:26:32;;;;;;;22.75;20.33;;;8.40;99.90;;;8.04;100.00;99636.09;4987360;28;20061;-77
2022/04/25 03:28:59;;;;;;;22.17;19.83;;;8.50;99.90;;;8.08;100.00;99644.75;4988283;28;20046;-77
2022/04/25 03:31:27;;;;;;;23.08;20.63;;;8.50;99.90;;;8.03;100.00;99642.22;4988386;28;20042;-77
2022/04/25 03:33:54;;;;;;;21.77;18.52;;;8.30;99.90;;;8.04;100.00;99651.81;5003093;28;20415;-77
2022/04/25 03:36:21;;;;;;;22.80;20.50;;;8.30;99.90;;;8.07;100.00;99653.50;5003789;28;20065;-78
2022/04/25 03:38:48;;;;;;;21.75;19.45;;;8.30;99.90;;;8.17;100.00;99656.75;5002657;28;20289;-77
2022/04/25 03:41:15;;;;;;;23.73;21.33;;;8.30;99.90;;;8.18;100.00;99666.34;5003757;28;20069;-78
2022/04/25 03:43:42;;;;;;;25.73;22.95;;;8.40;99.90;;;8.16;100.00;99657.66;5002120;28;20410;-77
2022/04/25 03:46:09;;;;;;;25.33;21.42;;;9.20;99.90;;;8.19;100.00;99666.28;4987759;28;20406;-77
2022/04/25 03:48:36;;;;;;;23.92;21.48;;;8.40;99.90;;;8.19;100.00;99666.28;4988181;28;20647;-78
2022/04/25 03:51:03;;;;;;;21.65;19.45;;;9.00;99.90;;;8.16;100.00;99661.13;5002585;28;20407;-78
2022/04/25 03:53:30;;;;;;;22.75;20.40;;;8.40;99.90;;;8.02;100.00;99661.47;5003049;28;20050;-78
2022/04/25 03:58:42;;;;;;;21.02;18.92;;;8.40;99.90;;;7.95;100.00;99658.16;5003206;28;20051;-77
2022/04/25 04:01:09;;;;;;;21.83;19.67;;;8.30;99.90;;;7.93;100.00;99665.19;5003459;28;20054;-77
2022/04/25 04:03:37;;;;;;;21.55;19.25;;;8.30;99.90;;;7.92;100.00;99658.22;5012008;28;20035;-75
2022/04/25 04:06:04;;;;;;;23.30;20.65;;;8.90;99.90;;;7.91;100.00;99658.25;4993631;28;20496;-77
2022/04/25 04:08:31;;;;;;;21.42;19.23;;;9.30;99.90;;;7.91;100.00;99668.72;4987940;28;20546;-76
2022/04/25 04:10:58;;;;;;;24.30;21.90;;;8.30;99.90;;;7.91;100.00;99669.59;4984202;28;20508;-76
2022/04/25 04:13:25;;;;;;;22.05;19.75;;;8.20;99.90;;;7.85;100.00;99672.34;4969752;28;20049;-77
2022/04/25 04:15:53;;;;;;;26.20;21.50;;;8.20;99.90;;;7.88;100.00;99679.28;5002802;28;20054;-77
2022/04/25 04:18:21;;;;;;;23.60;21.10;;;8.20;99.90;;;7.85;100.00;99688.06;5009246;28;20043;-78
2022/04/25 04:20:48;;;;;;;23.75;21.45;;;9.40;99.90;;;7.89;100.00;99687.13;5009207;28;20042;-79
2022/04/25 04:23:15;;;;;;;24.23;21.80;;;9.60;99.90;;;7.85;100.00;99687.22;4992506;28;20056;-78
2022/04/25 04:25:42;;;;;;;24.27;21.73;;;8.10;99.90;;;7.87;100.00;99696.75;4992097;28;20050;-78
2022/04/25 04:28:09;;;;;;;21.27;19.08;;;8.10;99.90;;;7.77;100.00;99696.09;4977052;28;20081;-78
2022/04/25 04:30:36;;;;;;;21.00;18.77;;;8.10;99.90;;;7.78;100.00;99707.47;4976866;28;20061;-78
2022/04/25 04:33:05;;;;;;;21.13;19.02;;;8.10;99.90;;;7.72;100.00;99704.97;4992891;28;20054;-77
2022/04/25 04:38:18;;;;;;;20.98;18.67;;;8.30;99.90;;;7.64;100.00;99702.50;4999566;28;20065;-78
2022/04/25 04:40:45;;;;;;;21.38;17.65;;;8.00;99.90;;;7.54;100.00;99708.88;4972888;28;20567;-77
2022/04/25 04:43:12;;;;;;;22.05;19.77;;;8.00;99.90;;;7.59;100.00;99702.66;4971364;28;20049;-77
2022/04/25 04:45:43;;;;;;;21.98;19.67;;;9.40;99.90;;;7.64;100.00;99703.38;5002926;28;20047;-77
2022/04/25 04:48:11;;;;;;;21.40;19.10;;;8.00;99.90;;;7.63;100.00;99701.66;4972432;28;20509;-76
2022/04/25 04:50:38;;;;;;;21.88;19.67;;;8.00;99.90;;;7.59;100.00;99696.53;4971628;28;20043;-74
2022/04/25 04:53:07;;;;;;;22.58;20.25;;;7.90;99.90;;;7.57;100.00;99704.44;4990909;28;20046;-75
2022/04/25 04:55:36;;;;;;;22.05;19.73;;;7.90;99.90;;;7.51;100.00;99715.91;4990904;28;20034;-77
2022/04/25 04:58:03;;;;;;;23.05;20.35;;;8.40;99.90;;;7.49;100.00;99714.19;4989865;28;20072;-74
2022/04/25 05:00:30;;;;;;;24.63;21.90;;;7.90;99.90;;;7.47;100.00;99719.47;4997474;28;20043;-75
2022/04/25 05:02:57;;;;;;;24.42;21.88;;;7.80;99.90;;;7.46;100.00;99715.13;4989466;28;20046;-75
2022/04/25 05:05:26;;;;;;;22.92;20.60;;;7.80;99.90;;;7.63;100.00;99726.97;4988094;28;20062;-77
2022/04/25 05:07:53;;;;;;;24.27;21.83;;;8.20;99.90;;;7.67;100.00;99718.19;4988951;28;20050;-76
2022/04/25 05:10:20;;;;;;;23.17;20.60;;;7.90;99.90;;;7.63;100.00;99713.88;4990117;28;20046;-77
2022/04/25 05:12:53;;;;;;;23.35;20.85;;;8.40;99.90;;;7.50;100.00;99722.03;4973133;28;20053;-76
2022/04/25 05:15:21;;;;;;;23.63;21.30;;;9.10;99.90;;;7.54;100.00;99725.44;4990825;28;20122;-77
2022/04/25 05:17:50;;;;;;;23.27;20.88;;;9.00;99.90;;;7.61;100.00;99726.16;4974587;28;20384;-76
2022/04/25 05:20:19;;;;;;;24.25;20.52;;;7.90;99.90;;;7.65;100.00;99733.91;4990325;28;20053;-76
2022/04/25 05:22:48;;;;;;;23.55;21.17;;;7.90;99.90;;;7.62;100.00;99733.09;4989765;28;20054;-75
2022/04/25 05:25:22;;;;;;;23.35;20.98;;;8.00;99.90;;;7.58;100.00;99736.69;4989794;28;20042;-75
2022/04/25 05:27:52;;;;;;;23.02;20.27;;;7.90;99.90;;;7.70;100.00;99743.41;4985130;28;20094;-75
2022/04/25 05:30:22;;;;;;;28.25;22.38;;;7.90;99.90;;;7.65;100.00;99754.84;4989583;28;20069;-75
2022/04/25 05:32:54;;;;;;;27.00;23.37;;;8.00;99.90;;;7.69;100.00;99754.78;4992570;28;20045;-75
2022/04/25 05:35:28;;;;;;;30.38;25.48;;;8.00;99.90;;;7.77;100.00;99760.72;4992613;28;20305;-75
2022/04/25 05:37:55;;;;;;;32.28;26.65;;;8.00;99.90;;;7.70;100.00;99759.13;4990017;28;20042;-75
2022/04/25 05:40:25;;;;;;;30.60;26.30;;;8.30;99.90;;;7.75;100.00;99763.38;4989393;28;20054;-75
2022/04/25 05:42:55;;;;;;;28.13;25.13;;;8.10;99.90;;;7.81;100.00;99770.25;4990506;28;20034;-75
2022/04/25 05:45:24;;;;;;;27.52;24.35;;;8.10;99.90;;;7.89;100.00;99770.94;4989510;28;20057;-75
2022/04/25 05:47:56;;;;;;;31.25;25.33;;;8.20;99.90;;;8.02;100.00;99776.75;4990506;28;20054;-75
2022/04/25 05:53:16;;;;;;;30.23;25.15;;;8.50;99.90;;;8.00;100.00;99770.69;4990536;28;20042;-75
2022/04/25 05:55:43;;;;;;;28.38;25.35;;;8.30;99.90;;;8.17;100.00;99772.06;4989244;28;20070;-75
2022/04/25 05:58:10;;;;;;;27.23;23.15;;;8.80;99.90;;;8.05;100.00;99786.31;4972688;28;20054;-75
2022/04/25 06:00:37;;;;;;;26.55;22.73;;;8.40;99.90;;;8.06;100.00;99795.91;4990110;28;20046;-75
2022/04/25 06:03:04;;;;;;;26.70;21.30;;;9.40;99.90;;;8.12;100.00;99793.13;5005001;28;20053;-75
2022/04/25 06:05:31;;;;;;;30.50;21.50;;;8.40;99.90;;;8.09;100.00;99793.19;4990421;28;20042;-75
2022/04/25 06:07:58;;;;;;;23.45;20.92;;;9.20;99.90;;;8.17;100.00;99796.47;4989002;28;20053;-75
2022/04/25 06:10:25;;;;;;;26.42;22.45;;;8.90;99.90;;;8.29;100.00;99795.34;5005525;28;20050;-75
2022/04/25 06:12:54;;;;;;;29.38;24.17;;;8.50;99.90;;;8.38;100.00;99789.88;4990194;28;20062;-76
2022/04/25 06:15:27;;;;;;;28.05;24.27;;;10.10;99.90;;;8.54;100.00;99792.16;4973887;28;20050;-75
2022/04/25 06:17:55;;;;;;;24.45;21.95;;;8.70;99.90;;;8.61;100.00;99796.38;4988976;28;20125;-78
2022/04/25 06:20:23;;;;;;;24.38;21.85;;;9.10;99.90;;;8.69;100.00;99806.66;4988841;28;20060;-79
2022/04/25 06:22:59;;;;;;;24.75;22.15;;;8.90;99.90;;;8.79;100.00;99808.13;4990106;28;20053;-78
2022/04/25 06:25:27;;;;;;;25.38;22.10;;;9.00;99.90;;;8.87;100.00;99801.84;4989158;28;20042;-77
2022/04/25 06:27:57;;;;;;;23.58;21.15;;;9.00;99.90;;;8.96;100.00;99796.31;4990060;28;20050;-77
2022/04/25 06:30:28;;;;;;;26.27;23.50;;;10.60;99.90;;;9.05;100.00;99798.72;4988216;28;20419;-77
2022/04/25 06:33:00;;;;;;;29.10;24.77;;;9.20;99.90;;;9.18;100.00;99803.63;5004632;28;20052;-77
2022/04/25 06:35:28;;;;;;;26.75;23.85;;;9.20;99.90;;;9.28;100.00;99801.63;4988641;28;20515;-77
2022/04/25 06:37:55;;;;;;;26.35;23.35;;;9.40;99.90;;;9.39;100.00;99814.44;5004052;28;20058;-77
2022/04/25 06:40:22;;;;;;;26.38;23.02;;;9.50;99.90;;;9.42;100.00;99806.47;5004585;28;20051;-76
2022/04/25 06:42:51;;;;;;;24.60;22.00;;;10.00;99.90;;;9.35;100.00;99804.03;5004673;28;20089;-75
2022/04/25 06:45:18;;;;;;;23.98;21.48;;;10.90;99.90;;;9.36;100.00;99802.25;4988641;28;20410;-77
2022/04/25 06:47:45;;;;;;;22.33;19.92;;;9.90;99.90;;;9.45;100.00;99796.75;5006082;28;20065;-76
2022/04/25 06:50:12;;;;;;;24.10;21.60;;;9.80;99.90;;;9.53;100.00;99795.69;4988086;28;20047;-76
2022/04/25 06:52:40;;;;;;;23.25;20.85;;;9.90;99.90;;;9.65;100.00;99792.69;4989651;28;20065;-77
2022/04/25 06:55:07;;;;;;;26.10;23.50;;;9.90;99.90;;;9.79;100.00;99795.75;5004111;28;20042;-78
2022/04/25 06:57:35;;;;;;;25.65;22.88;;;9.90;99.90;;;9.88;100.00;99801.66;4988539;28;20500;-78
2022/04/25 07:00:11;;;;;;;25.92;23.30;;;10.00;99.90;;;9.99;100.00;99796.94;5004279;28;20038;-77
2022/04/25 07:02:59;;;;;;;26.08;23.38;;;10.10;99.90;;;10.06;100.00;99792.31;4988542;28;20701;-76
2022/04/25 07:05:26;;;;;;;25.33;22.63;;;10.20;99.90;;;10.16;100.00;99799.03;4972194;28;20061;-76
2022/04/25 07:07:53;;;;;;;26.13;23.45;;;10.90;99.90;;;10.16;100.00;99803.44;4988135;28;20042;-77
2022/04/25 07:10:20;;;;;;;25.45;23.05;;;10.30;99.90;;;10.24;100.00;99801.41;4987959;28;20420;-76
2022/04/25 07:12:51;;;;;;;26.13;23.48;;;10.30;99.90;;;10.29;100.00;99799.50;4987922;28;20140;-76
2022/04/25 07:15:19;;;;;;;33.05;29.45;;;10.40;99.90;;;10.34;100.00;99794.97;4987967;28;20585;-76
2022/04/25 07:17:50;;;;;;;28.60;25.60;;;10.50;99.90;;;10.51;100.00;99796.22;4987967;28;20078;-77
2022/04/25 07:20:18;;;;;;;27.13;24.42;;;10.70;99.90;;;10.62;100.00;99793.22;5003886;28;20054;-77
2022/04/25 07:31:02;;;;;;;37.90;34.05;;;10.90;99.90;;;11.03;100.00;99796.22;4987930;28;20054;-79
2022/04/25 07:33:29;;;;;;;28.58;25.77;;;11.00;99.90;;;11.10;100.00;99796.88;4986842;28;20046;-78
2022/04/25 07:35:56;;;;;;;40.75;36.53;;;11.90;99.90;;;11.19;100.00;99795.66;5002701;28;20042;-78
2022/04/25 07:38:23;;;;;;;36.28;32.42;;;11.20;99.90;;;11.25;100.00;99794.59;5003816;28;20050;-78
2022/04/25 07:40:50;;;;;;;33.08;29.67;;;11.20;99.90;;;11.29;100.00;99797.03;4990565;28;20042;-78
2022/04/25 07:43:17;;;;;;;33.22;29.73;;;11.50;99.90;;;11.36;100.00;99797.69;5002617;28;20047;-78
2022/04/25 07:45:44;;;;;;;32.20;28.77;;;11.30;99.90;;;11.32;100.00;99794.31;4971690;28;20125;-79
2022/04/25 07:48:11;;;;;;;32.10;28.70;;;11.40;99.90;;;11.41;100.00;99803.66;4966547;28;20579;-79
2022/04/25 07:50:39;;;;;;;30.05;26.80;;;11.70;99.90;;;11.39;100.00;99805.47;4987881;28;20049;-79
2022/04/25 07:53:07;;;;;;;31.85;28.52;;;11.50;99.90;;;11.51;100.00;99811.22;4974671;28;20531;-79
2022/04/25 07:55:34;;;;;;;30.23;27.13;;;11.60;99.90;;;11.61;100.00;99810.81;4991190;28;20043;-79
2022/04/25 07:58:01;;;;;;;29.50;26.60;;;12.30;99.90;;;11.72;100.00;99807.78;4975951;28;20043;-79
2022/04/25 08:00:28;;;;;;;29.23;26.15;;;11.80;99.90;;;11.84;100.00;99810.84;4995450;28;20046;-80
2022/04/25 08:02:56;;;;;;;30.52;27.30;;;11.80;99.90;;;11.94;100.00;99812.22;5011125;28;20048;-79
2022/04/25 08:05:23;;;;;;;30.15;27.05;;;12.50;99.90;;;11.89;100.00;99815.03;4992989;28;20121;-79
2022/04/25 08:07:50;;;;;;;30.20;27.08;;;12.00;99.90;;;11.95;100.00;99813.94;4994626;28;20133;-79
2022/04/25 08:10:17;;;;;;;28.90;26.00;;;12.00;99.90;;;12.04;100.00;99811.00;5009174;28;20451;-79
2022/04/25 08:18:16;;;;;;;31.48;28.30;;;12.10;99.90;;;12.20;100.00;99813.88;5008177;28;20043;-78
2022/04/25 08:20:43;;;;;;;30.50;27.33;;;12.40;99.90;;;12.29;100.00;99817.06;4993685;28;20074;-78
2022/04/25 08:23:12;;;;;;;31.17;28.08;;;12.60;99.90;;;12.33;100.00;99813.38;5010192;28;20392;-79
2022/04/25 08:25:41;;;;;;;32.05;28.85;;;12.30;99.90;;;12.41;100.00;99827.13;5010170;28;20050;-78
2022/04/25 08:28:10;;;;;;;31.02;27.83;;;12.40;99.90;;;12.57;100.00;99821.25;5006928;28;20092;-78
2022/04/25 08:30:37;;;;;;;30.83;27.63;;;12.40;99.90;;;12.53;100.00;99824.91;4965345;28;20046;-78
2022/04/25 08:33:05;;;;;;;28.38;25.50;;;12.50;99.90;;;12.58;100.00;99825.59;5010950;28;20133;-78
2022/04/25 08:35:32;;;;;;;29.17;26.15;;;12.60;99.90;;;12.60;100.00;99827.22;5010784;28;20072;-78
2022/04/25 08:37:59;;;;;;;30.40;27.38;;;12.70;99.90;;;12.74;100.00;99826.69;5012368;28;20749;-79
2022/04/25 08:40:26;;;;;;;28.92;25.95;;;12.90;99.90;;;12.88;100.00;99825.25;4995415;28;20056;-78
2022/04/25 08:42:54;;;;;;;30.92;27.73;;;12.80;99.90;;;12.91;100.00;99831.22;4997335;28;20147;-79
2022/04/25 08:45:23;;;;;;;29.55;26.65;;;12.90;99.90;;;13.12;100.00;99825.09;4995211;28;20050;-79
2022/04/25 08:47:55;;;;;;;31.25;27.88;;;13.00;99.90;;;13.24;100.00;99837.78;5012292;28;20444;-79
2022/04/25 08:50:23;;;;;;;29.73;26.30;;;13.10;99.90;;;13.37;100.00;99832.81;5012048;28;20093;-79
2022/04/25 08:52:52;;;;;;;27.10;24.50;;;13.30;99.90;;;13.44;100.00;99828.13;5012600;28;20057;-78
2022/04/25 08:55:22;;;;;;;26.13;23.50;;;13.30;99.90;;;13.51;100.00;99831.38;5012047;28;20035;-78
2022/04/25 08:57:51;;;;;;;;;;;13.50;99.90;;;13.58;100.00;99827.50;4995875;28;20057;-78
2022/04/25 09:00:18;;;;;;;27.20;24.50;;;13.50;99.90;;;13.55;100.00;99833.81;4995609;28;19930;-78
2022/04/25 09:02:47;;;;;;;26.10;23.60;;;13.60;99.90;;;13.67;100.00;99834.19;5008454;28;20046;-79
2022/04/25 09:05:16;;;;;;;25.57;23.00;;;13.80;99.90;;;13.81;100.00;99834.38;5007103;28;20062;-77
2022/04/25 09:07:44;;;;;;;23.40;21.20;;;13.70;99.90;;;13.87;100.00;99835.91;4990416;28;20053;-79
2022/04/25 09:10:16;;;;;;;25.60;23.17;;;14.20;99.90;;;14.02;100.00;99831.69;5007313;28;20121;-79
2022/04/25 09:12:46;;;;;;;22.77;20.58;;;14.00;99.90;;;14.09;100.00;99832.25;4991052;28;20053;-80
2022/04/25 09:15:23;;;;;;;24.08;21.63;;;14.10;99.90;;;14.21;100.00;99838.75;5005906;28;20058;-78
2022/04/25 09:17:55;;;;;;;23.80;21.60;;;14.20;99.90;;;14.28;100.00;99838.38;4990287;28;20042;-77
2022/04/25 09:20:25;;;;;;;23.20;20.95;;;14.30;99.90;;;14.27;100.00;99833.16;5006125;28;20050;-76
2022/04/25 09:22:53;;;;;;;23.08;20.77;;;14.40;99.90;;;14.45;100.00;99836.72;5005966;28;20065;-76
2022/04/25 09:25:21;;;;;;;23.45;21.20;;;14.40;99.90;;;14.58;100.00;99831.66;5006062;28;20046;-77
2022/04/25 09:28:12;;;;;;;23.23;21.02;;;14.50;99.90;;;14.71;100.00;99832.81;4986358;28;20042;-76
2022/04/25 09:30:56;;;;;;;22.13;19.92;;;14.60;99.90;;;14.83;100.00;99831.34;4986522;28;20510;-77
2022/04/25 09:33:24;;;;;;;23.50;21.20;;;14.70;99.90;;;14.76;100.00;99834.38;4986174;28;20047;-77
2022/04/25 09:35:56;;;;;;;22.77;20.67;;;14.80;99.90;;;14.79;100.00;99831.59;4986545;28;20070;-76
2022/04/25 09:38:33;;;;;;;21.60;19.55;;;15.70;99.90;;;14.86;100.00;99827.66;4986404;28;20050;-76
2022/04/25 09:41:01;;;;;;;22.13;19.98;;;14.80;99.50;;;14.85;100.00;99834.78;4986295;28;20054;-76
2022/04/25 09:43:30;;;;;;;21.70;19.58;;;14.90;99.40;;;15.03;100.00;99832.13;4986381;28;20050;-76
2022/04/25 09:46:04;;;;;;;19.35;17.55;;;14.90;99.90;;;15.15;100.00;99834.16;4986822;28;20086;-74
2022/04/25 09:48:32;;;;;;;19.15;17.35;;;15.00;99.70;;;15.05;100.00;99837.31;5010378;28;20054;-76
2022/04/25 09:51:11;;;;;;;18.35;16.65;;;15.10;98.50;;;15.20;100.00;99831.22;4971249;28;20456;-77
2022/04/25 09:53:52;;;;;;;17.33;15.10;;;15.10;98.80;;;15.37;100.00;99835.66;4986039;28;20039;-76
2022/04/25 09:56:23;;;;;;;16.75;15.15;;;15.20;98.80;;;15.41;100.00;99829.25;4990162;28;20050;-77
2022/04/25 09:59:07;;;;;;;16.85;15.30;;;15.30;97.90;;;15.42;100.00;99832.78;4986918;28;20053;-77
2022/04/25 10:01:39;;;;;;;17.63;15.90;;;15.40;97.90;;;15.45;100.00;99844.09;5000411;28;20054;-77
2022/04/25 10:04:31;;;;;;;16.00;14.60;;;16.60;98.10;;;15.82;100.00;99848.34;5006070;28;20532;-77
2022/04/25 10:07:04;;;;;;;16.85;15.23;;;15.60;98.40;;;16.14;100.00;99843.94;4989945;28;20478;-77
2022/04/25 10:09:34;;;;;;;15.95;13.82;;;15.80;98.00;;;16.29;100.00;99850.19;5005581;28;20050;-77
2022/04/25 10:12:05;;;;;;;15.23;13.82;;;16.00;97.60;;;16.18;100.00;99843.78;5005638;28;20074;-77
2022/04/25 10:14:32;;;;;;;16.17;14.57;;;16.10;97.00;;;16.12;100.00;99848.47;4989300;28;20054;-76
2022/04/25 10:17:00;;;;;;;15.18;13.77;;;16.20;96.90;;;16.16;100.00;99847.38;4989293;28;20289;-76
2022/04/25 10:19:29;;;;;;;15.82;14.32;;;16.20;96.40;;;16.27;100.00;99845.91;5005110;28;20057;-75
2022/04/25 10:21:58;;;;;;;;;;;16.20;96.50;;;16.39;100.00;99847.88;5006503;28;20442;-77
2022/04/25 10:24:25;;;;;;;15.20;13.70;;;16.30;96.60;;;16.34;100.00;99847.28;5001488;28;19984;-77
2022/04/25 10:26:53;;;;;;;14.93;13.52;;;16.40;96.10;;;16.49;100.00;99845.56;4953908;28;20041;-77
2022/04/25 10:29:26;;;;;;;14.85;13.55;;;16.40;96.10;;;16.54;100.00;99845.28;4970685;28;20034;-77
2022/04/25 10:32:00;;;;;;;13.07;11.88;;;16.60;96.10;;;16.63;100.00;99844.78;4985877;28;20041;-79
2022/04/25 10:34:51;;;;;;;13.73;12.40;;;16.60;95.40;;;16.77;100.00;99845.75;5005033;28;20050;-78
2022/04/25 10:37:40;;;;;;;13.13;11.88;;;16.70;95.00;;;16.58;96.35;99847.69;5004636;28;20050;-76
2022/04/25 10:40:14;;;;;;;11.35;10.18;;;16.70;93.70;;;16.43;91.83;99841.44;4989747;28;20077;-77
2022/04/25 10:46:01;;;;;;;12.32;11.23;;;16.60;93.20;;;16.83;99.23;99842.75;4988241;28;20058;-77